Terminal Aerodrome Forecast
Issued by NWS

Home | Current Version | Previous Version | Text Only | Print | Product List | Glossary On
Versions: 1 2 3 4 5 6 7 8 9 10 11 12 13 14 15 16 17
000
FTUS46 KMTR 031100
TAFOAK
TAF
KOAK 031120Z 0312/0418 23007KT P6SM BKN010
     FM031800 26015KT P6SM FEW020
     FM032000 26017G23KT P6SM FEW020
     FM040300 26011KT P6SM FEW015 SCT200
     FM040600 25011KT P6SM OVC015=

USA.gov is the U.S. government's official web portal to all federal, state and local government web resources and services.